»·PEaware :: WAT380 KBZN-KGEG

WAT380 :: KBZN-KGEG

FLIGHT INFORMATION

Flight Status: Arrived
Operator:
Walker Air Transport
More flights by this operator :: More flights under this callsign
Pilot: Spencer M. (27733)
Aircraft: PILATUS PC-12 EAGLE
(PC12)
More flights by this aircraft type
Origin: KBZN Gallatin
United States
Destination: KGEG Spokane Intl
United States
More flights between these airports :: More routes between these airports
Route: HIA5 HIA V86 MSO V2 MLP HILIE2
File this flight plan on PilotEdge
Remarks:
Altitude:
(Current/Filed)
24,000ft
Speed:
(Current/Filed)
240kts
Departed: 09-Nov-20 08:12 PM
Arrived: 09-Nov-20 09:35 PM
Distance/Time
Traveled:
285nm/1:23
Distance/Time
To Go:
Arrived

Flight Plot

Page will automatically refresh every two minutes.

Flight plan parsing failed; only flown route is shown


Map Options




Map Legend


Flown Route
Filed Route
Departure Airport
Arrival Airport
Navaid (VOR, NDB)
Fix

Horizontal Profiles

Position Reports

Time Latitude Longitude Heading Altitude Ground
Speed
09-Nov-20 19:50 45.779101 -111.160931 235 4475ft 0kts
09-Nov-20 19:51 45.779101 -111.160931 235 4475ft 0kts
09-Nov-20 19:52 45.779101 -111.160931 235 4475ft 0kts
09-Nov-20 19:53 45.779101 -111.160931 235 4475ft 0kts
09-Nov-20 19:54 45.779101 -111.160931 235 4475ft 0kts
09-Nov-20 19:55 45.779101 -111.160931 235 4475ft 0kts
09-Nov-20 19:56 45.779101 -111.160931 235 4475ft 0kts
09-Nov-20 19:57 45.779101 -111.160931 235 4475ft 0kts
09-Nov-20 19:58 45.779101 -111.160931 235 4475ft 0kts
09-Nov-20 19:59 45.779101 -111.160931 235 4475ft 0kts
09-Nov-20 20:00 45.779101 -111.160931 235 4475ft 0kts
09-Nov-20 20:01 45.779101 -111.160931 235 4475ft 0kts
09-Nov-20 20:02 45.779443 -111.161334 25 4475ft 0kts
09-Nov-20 20:03 45.779460 -111.161322 26 4475ft 1kts
09-Nov-20 20:04 45.781354 -111.161299 315 4475ft 13kts
09-Nov-20 20:05 45.784585 -111.165790 315 4475ft 18kts
09-Nov-20 20:06 45.787352 -111.167373 45 4475ft 2kts
09-Nov-20 20:07 45.787366 -111.167352 45 4475ft 0kts
09-Nov-20 20:08 45.787366 -111.167352 45 4475ft 0kts
09-Nov-20 20:09 45.787366 -111.167352 45 4475ft 0kts
09-Nov-20 20:10 45.787462 -111.165678 135 4475ft 23kts
09-Nov-20 20:11 45.766156 -111.135635 135 4945ft 145kts
09-Nov-20 20:12 45.740082 -111.155388 266 6682ft 150kts
09-Nov-20 20:13 45.737350 -111.217856 266 8205ft 163kts
09-Nov-20 20:14 45.732938 -111.282941 252 9711ft 166kts
09-Nov-20 20:15 45.708806 -111.341600 240 10927ft 182kts
09-Nov-20 20:16 45.682643 -111.405429 249 11922ft 190kts
09-Nov-20 20:17 45.669531 -111.475144 289 12925ft 184kts
09-Nov-20 20:18 45.685125 -111.545968 293 13911ft 189kts
09-Nov-20 20:19 45.704921 -111.616312 295 14895ft 193kts
09-Nov-20 20:20 45.725360 -111.687774 295 15927ft 195kts
09-Nov-20 20:21 45.745811 -111.759540 295 17016ft 196kts
09-Nov-20 20:22 45.766494 -111.832365 296 18122ft 198kts
09-Nov-20 20:23 45.787040 -111.904949 297 19309ft 196kts
09-Nov-20 20:24 45.807396 -111.977033 297 20509ft 193kts
09-Nov-20 20:25 45.827741 -112.049121 298 21539ft 198kts
09-Nov-20 20:26 45.848402 -112.122731 298 22579ft 198kts
09-Nov-20 20:27 45.868842 -112.195145 299 23656ft 195kts
09-Nov-20 20:28 45.891493 -112.270427 299 23982ft 222kts
09-Nov-20 20:29 45.917019 -112.355947 299 23979ft 241kts
09-Nov-20 20:30 45.943499 -112.445773 298 23996ft 247kts
09-Nov-20 20:31 45.970309 -112.536987 298 23996ft 249kts
09-Nov-20 20:32 45.997355 -112.629311 298 23996ft 250kts
09-Nov-20 20:33 46.024289 -112.721545 297 23997ft 251kts
09-Nov-20 20:35 46.065993 -112.798889 317 23996ft 245kts
09-Nov-20 20:36 46.113315 -112.869246 317 24029ft 244kts
09-Nov-20 20:37 46.160527 -112.939778 317 24057ft 245kts
09-Nov-20 20:38 46.207814 -113.010708 316 24072ft 246kts
09-Nov-20 20:39 46.255274 -113.082116 316 24074ft 246kts
09-Nov-20 20:40 46.302751 -113.153750 316 24074ft 247kts
09-Nov-20 20:41 46.350116 -113.225387 316 24073ft 247kts
09-Nov-20 20:42 46.397482 -113.297220 316 24073ft 247kts
09-Nov-20 20:43 46.444882 -113.369298 316 24073ft 247kts
09-Nov-20 20:44 46.492222 -113.441494 316 24072ft 247kts
09-Nov-20 20:45 46.539650 -113.514008 316 24072ft 247kts
09-Nov-20 20:46 46.587318 -113.587073 316 23998ft 249kts
09-Nov-20 20:47 46.634701 -113.659950 315 23999ft 248kts
09-Nov-20 20:48 46.681920 -113.732737 315 23999ft 248kts
09-Nov-20 20:49 46.729165 -113.805765 315 23998ft 247kts
09-Nov-20 20:50 46.776437 -113.879044 315 23998ft 248kts
09-Nov-20 20:51 46.823657 -113.952437 315 23994ft 248kts
09-Nov-20 20:52 46.870888 -114.026051 314 23999ft 248kts
09-Nov-20 20:53 46.915070 -114.103490 301 24013ft 250kts
09-Nov-20 20:53 46.942449 -114.178626 299 24023ft 251kts
09-Nov-20 20:54 46.974786 -114.269270 300 24015ft 251kts
09-Nov-20 20:55 47.007290 -114.360005 300 24016ft 251kts
09-Nov-20 20:56 47.039662 -114.450555 299 24015ft 251kts
09-Nov-20 20:58 47.077418 -114.556576 299 24015ft 251kts
09-Nov-20 20:58 47.104315 -114.632356 299 24017ft 251kts
09-Nov-20 20:59 47.136651 -114.723739 298 24020ft 252kts
09-Nov-20 21:00 47.168823 -114.814963 298 24020ft 252kts
09-Nov-20 21:01 47.201051 -114.906685 298 24019ft 252kts
09-Nov-20 21:02 47.233207 -114.998524 298 24008ft 253kts
09-Nov-20 21:03 47.265505 -115.091061 298 23969ft 254kts
09-Nov-20 21:04 47.297572 -115.183287 298 23930ft 254kts
09-Nov-20 21:05 47.329724 -115.276113 298 23917ft 253kts
09-Nov-20 21:06 47.361632 -115.368556 298 23917ft 253kts
09-Nov-20 21:07 47.393400 -115.460898 297 23912ft 253kts
09-Nov-20 21:08 47.425925 -115.555395 297 23282ft 265kts
09-Nov-20 21:09 47.456263 -115.651975 284 22269ft 255kts
09-Nov-20 21:10 47.463995 -115.756572 276 21032ft 258kts
09-Nov-20 21:11 47.470431 -115.860666 276 19616ft 249kts
09-Nov-20 21:12 47.476397 -115.959326 276 18077ft 235kts
09-Nov-20 21:13 47.482076 -116.053437 276 16580ft 227kts
09-Nov-20 21:14 47.487563 -116.145873 276 15077ft 225kts
09-Nov-20 21:15 47.492914 -116.237086 276 13570ft 220kts
09-Nov-20 21:16 47.498057 -116.326141 276 12094ft 214kts
09-Nov-20 21:17 47.502699 -116.410851 276 12013ft 203kts
09-Nov-20 21:18 47.507390 -116.493886 276 12013ft 203kts
09-Nov-20 21:19 47.512642 -116.584035 275 10821ft 215kts
09-Nov-20 21:20 47.517788 -116.677751 275 9761ft 200kts
09-Nov-20 21:21 47.537601 -116.754957 290 8345ft 196kts
09-Nov-20 21:22 47.559744 -116.828860 290 6895ft 189kts
09-Nov-20 21:23 47.580860 -116.900280 290 6718ft 184kts
09-Nov-20 21:24 47.601699 -116.970504 290 6715ft 184kts
09-Nov-20 21:25 47.612995 -117.041191 268 6712ft 170kts
09-Nov-20 21:26 47.613571 -117.116995 268 6707ft 165kts
09-Nov-20 21:27 47.614257 -117.184764 267 6499ft 155kts
09-Nov-20 21:28 47.614834 -117.249457 268 5314ft 156kts
09-Nov-20 21:29 47.615428 -117.313089 269 5040ft 153kts
09-Nov-20 21:30 47.615720 -117.370899 269 4302ft 118kts
09-Nov-20 21:31 47.616095 -117.416340 266 3673ft 111kts
09-Nov-20 21:32 47.616498 -117.459971 267 3223ft 107kts
09-Nov-20 21:33 47.616707 -117.502961 267 2657ft 96kts
09-Nov-20 21:34 47.616609 -117.532090 225 2388ft 16kts
09-Nov-20 21:35 47.614602 -117.534325 238 2388ft 8kts
09-Nov-20 21:36 47.614530 -117.536155 269 2388ft 0kts
09-Nov-20 21:37 47.614530 -117.536154 269 2388ft 0kts

Navigation Log

Ident Type
Flight plan parsing failed, navigation log unavailable